createdAt,value
2019-03-15T00:01:40.071Z,5.80
2019-03-15T00:04:08.616Z,5.90
2019-03-15T00:06:37.216Z,5.80
2019-03-15T00:09:07.790Z,5.90
2019-03-15T00:11:36.334Z,5.90
2019-03-15T00:14:05.237Z,5.90
2019-03-15T00:16:33.711Z,5.90
2019-03-15T00:19:02.311Z,5.80
2019-03-15T00:21:30.860Z,5.80
2019-03-15T00:23:59.423Z,5.90
2019-03-15T00:26:28.034Z,5.90
2019-03-15T00:28:56.606Z,5.80
2019-03-15T00:31:25.206Z,5.70
2019-03-15T00:33:53.787Z,5.60
2019-03-15T00:36:22.348Z,5.50
2019-03-15T00:38:51.050Z,5.40
2019-03-15T00:41:19.656Z,5.40
2019-03-15T00:43:49.545Z,5.40
2019-03-15T00:46:18.409Z,5.40
2019-03-15T00:48:47.051Z,5.40
2019-03-15T00:51:15.699Z,5.40
2019-03-15T00:53:44.263Z,5.50
2019-03-15T00:56:12.903Z,5.50
2019-03-15T00:58:41.482Z,5.60
2019-03-15T01:01:10.223Z,5.60
2019-03-15T01:03:38.743Z,5.60
2019-03-15T01:06:07.318Z,5.70
2019-03-15T01:08:35.915Z,5.70
2019-03-15T01:11:04.878Z,5.80
2019-03-15T01:13:33.494Z,5.80
2019-03-15T01:16:02.094Z,5.80
2019-03-15T01:18:30.662Z,5.80
2019-03-15T01:20:59.142Z,5.90
2019-03-15T01:23:27.707Z,5.80
2019-03-15T01:25:56.259Z,5.90
2019-03-15T01:28:24.819Z,5.90
2019-03-15T01:30:53.845Z,5.90
2019-03-15T01:33:22.412Z,5.90
2019-03-15T01:35:50.955Z,5.90
2019-03-15T01:38:19.529Z,5.90
2019-03-15T01:40:48.959Z,5.90
2019-03-15T01:43:17.843Z,5.90
2019-03-15T01:45:46.394Z,5.80
2019-03-15T01:48:14.948Z,5.80
2019-03-15T01:50:43.579Z,5.80
2019-03-15T01:53:12.130Z,5.80
2019-03-15T01:55:40.695Z,5.80
2019-03-15T01:58:09.347Z,5.80
2019-03-15T02:00:38.745Z,5.80
2019-03-15T02:03:07.338Z,5.80
2019-03-15T02:05:35.906Z,5.80
2019-03-15T02:08:04.518Z,5.80
2019-03-15T02:10:33.072Z,5.80
2019-03-15T02:13:02.008Z,5.90
2019-03-15T02:15:30.558Z,5.90
2019-03-15T02:17:59.142Z,5.90
2019-03-15T02:20:27.679Z,5.90
2019-03-15T02:22:56.251Z,5.90
2019-03-15T02:25:24.795Z,5.90
2019-03-15T02:27:53.358Z,5.90
2019-03-15T02:30:22.259Z,5.90
2019-03-15T02:32:50.819Z,5.90
2019-03-15T02:35:20.120Z,5.90
2019-03-15T02:37:48.963Z,5.90
2019-03-15T02:40:17.805Z,5.90
2019-03-15T02:42:46.351Z,5.90
2019-03-15T02:45:15.146Z,5.90
2019-03-15T02:47:43.860Z,6.00
2019-03-15T02:50:12.499Z,6.00
2019-03-15T02:52:42.345Z,6.00
2019-03-15T02:55:11.330Z,6.00
2019-03-15T02:57:39.980Z,6.00
2019-03-15T03:00:09.711Z,6.00
2019-03-15T03:02:38.254Z,6.00
2019-03-15T03:05:09.257Z,6.10
2019-03-15T03:07:37.882Z,6.10
2019-03-15T03:10:08.409Z,6.10
2019-03-15T03:12:36.952Z,6.10
2019-03-15T03:15:07.406Z,6.10
2019-03-15T03:17:36.387Z,6.10
2019-03-15T03:20:08.789Z,6.10
2019-03-15T03:22:37.347Z,6.10
2019-03-15T03:25:07.036Z,6.10
2019-03-15T03:27:35.623Z,6.10
2019-03-15T03:30:05.093Z,6.20
2019-03-15T03:32:33.672Z,6.20
2019-03-15T03:35:02.376Z,6.20
2019-03-15T03:37:31.077Z,6.20
2019-03-15T03:40:01.523Z,6.20
2019-03-15T03:42:30.118Z,6.20
2019-03-15T03:44:58.730Z,6.20
2019-03-15T03:47:27.215Z,6.20
2019-03-15T03:49:55.786Z,6.20
2019-03-15T03:52:24.408Z,6.20
2019-03-15T03:54:52.966Z,6.30
2019-03-15T03:57:21.650Z,6.30
2019-03-15T03:59:50.295Z,6.30
2019-03-15T04:02:18.950Z,6.20
2019-03-15T04:04:47.740Z,6.30
2019-03-15T04:07:16.288Z,6.30
2019-03-15T04:09:44.907Z,6.30
2019-03-15T04:12:13.443Z,6.30
2019-03-15T04:14:41.990Z,6.30
2019-03-15T04:17:10.574Z,6.20
2019-03-15T04:19:39.498Z,6.20
2019-03-15T04:22:08.067Z,6.10
2019-03-15T04:24:36.611Z,6.10
2019-03-15T04:27:05.342Z,6.10
2019-03-15T04:29:33.906Z,6.10
2019-03-15T04:32:02.472Z,6.20
2019-03-15T04:34:31.021Z,6.20
2019-03-15T04:36:59.595Z,6.10
2019-03-15T04:39:28.144Z,6.20
2019-03-15T04:41:56.710Z,6.20
2019-03-15T04:44:25.263Z,6.20
2019-03-15T04:46:53.855Z,6.20
2019-03-15T04:49:22.416Z,6.20
2019-03-15T04:51:51.015Z,6.20
2019-03-15T04:54:19.582Z,6.20
2019-03-15T04:56:48.131Z,6.20
2019-03-15T04:59:16.708Z,6.20
2019-03-15T05:01:45.247Z,6.20
2019-03-15T05:04:13.883Z,6.30
2019-03-15T05:06:42.423Z,6.30
2019-03-15T05:09:10.994Z,6.30
2019-03-15T05:11:39.535Z,6.30
2019-03-15T05:14:08.115Z,6.30
2019-03-15T05:16:36.667Z,6.30
2019-03-15T05:19:05.211Z,6.40
2019-03-15T05:21:33.780Z,6.40
2019-03-15T05:24:02.404Z,6.40
2019-03-15T05:26:30.974Z,6.40
2019-03-15T05:28:59.948Z,6.50
2019-03-15T05:31:28.515Z,6.50
2019-03-15T05:33:57.068Z,6.50
2019-03-15T05:36:25.681Z,6.50
2019-03-15T05:38:54.493Z,6.50
2019-03-15T05:41:23.087Z,6.50
2019-03-15T05:43:53.162Z,6.50
2019-03-15T05:46:21.786Z,6.50
2019-03-15T05:48:50.351Z,6.50
2019-03-15T05:51:18.900Z,6.50
2019-03-15T05:53:47.463Z,6.50
2019-03-15T05:56:16.002Z,6.50
2019-03-15T05:58:44.577Z,6.50
2019-03-15T06:01:13.122Z,6.50
2019-03-15T06:03:48.601Z,6.40
2019-03-15T06:06:12.183Z,6.40
2019-03-15T06:08:40.747Z,6.30
2019-03-15T06:11:09.295Z,6.30
2019-03-15T06:13:38.153Z,6.30
2019-03-15T06:16:06.710Z,6.30
2019-03-15T06:18:35.267Z,6.20
2019-03-15T06:21:03.835Z,6.20
2019-03-15T06:23:32.388Z,6.20
2019-03-15T06:26:00.955Z,6.20
2019-03-15T06:28:29.592Z,6.30
2019-03-15T06:30:58.267Z,6.20
2019-03-15T06:33:28.735Z,6.30
2019-03-15T06:35:57.034Z,6.20
2019-03-15T06:38:25.583Z,6.20
2019-03-15T06:40:54.187Z,6.20
2019-03-15T06:43:22.791Z,6.10
2019-03-15T06:45:51.381Z,6.20
2019-03-15T06:48:19.927Z,6.10
2019-03-15T06:50:48.737Z,6.00
2019-03-15T06:53:17.299Z,6.00
2019-03-15T06:55:45.915Z,6.00
2019-03-15T06:58:14.479Z,6.00
2019-03-15T07:00:43.090Z,6.00
2019-03-15T07:03:11.628Z,6.00
2019-03-15T07:05:40.171Z,5.90
2019-03-15T07:08:08.736Z,5.90
2019-03-15T07:10:37.543Z,5.90
2019-03-15T07:13:06.110Z,6.00
2019-03-15T07:15:34.657Z,5.90
2019-03-15T07:18:03.246Z,6.00
2019-03-15T07:20:32.171Z,6.00
2019-03-15T07:23:00.728Z,6.00
2019-03-15T07:25:29.301Z,6.00
2019-03-15T07:27:57.837Z,6.00
2019-03-15T07:30:26.402Z,6.10
2019-03-15T07:32:54.957Z,6.10
2019-03-15T07:35:23.519Z,6.10
2019-03-15T07:37:52.066Z,6.10
2019-03-15T07:40:20.622Z,6.10
2019-03-15T07:42:49.162Z,6.10
2019-03-15T07:45:17.742Z,6.10
2019-03-15T07:47:46.393Z,6.20
2019-03-15T07:50:15.754Z,6.20
2019-03-15T07:52:44.715Z,6.20
2019-03-15T07:55:13.604Z,6.20
2019-03-15T07:57:42.168Z,6.30
2019-03-15T08:00:13.220Z,6.30
2019-03-15T08:02:41.907Z,5.90
2019-03-15T08:05:10.587Z,6.00
2019-03-15T08:07:44.794Z,5.90
2019-03-15T08:10:10.819Z,6.00
2019-03-15T08:12:39.348Z,5.90
2019-03-15T08:15:10.224Z,5.80
2019-03-15T08:17:38.757Z,6.00
2019-03-15T08:20:09.928Z,6.00
2019-03-15T08:22:38.473Z,6.10
2019-03-15T08:25:09.184Z,6.00
2019-03-15T08:27:37.791Z,6.20
2019-03-15T08:30:09.723Z,6.20
2019-03-15T08:32:38.266Z,6.20
2019-03-15T08:35:08.764Z,6.30
2019-03-15T08:37:37.567Z,6.40
2019-03-15T08:40:09.561Z,6.40
2019-03-15T08:42:38.095Z,6.30
2019-03-15T08:45:09.735Z,6.30
2019-03-15T08:47:38.271Z,6.20
2019-03-15T08:50:10.027Z,6.40
2019-03-15T08:52:41.980Z,6.50
2019-03-15T08:55:10.679Z,6.60
2019-03-15T08:57:39.239Z,6.80
2019-03-15T09:00:13.308Z,6.90
2019-03-15T09:02:42.161Z,6.90
2019-03-15T09:05:16.975Z,6.90
2019-03-15T09:07:45.647Z,6.80
2019-03-15T09:10:22.703Z,6.90
2019-03-15T09:12:45.614Z,6.80
2019-03-15T09:15:14.443Z,6.70
2019-03-15T09:17:43.075Z,6.80
2019-03-15T09:20:15.234Z,6.90
2019-03-15T09:22:43.812Z,7.00
2019-03-15T09:25:19.637Z,7.00
2019-03-15T09:27:46.962Z,7.00
2019-03-15T09:30:23.762Z,7.00
2019-03-15T09:32:47.539Z,7.10
2019-03-15T09:35:16.178Z,7.30
2019-03-15T09:37:47.464Z,7.40
2019-03-15T09:40:15.889Z,7.50
2019-03-15T09:42:44.471Z,7.60
2019-03-15T09:45:14.899Z,7.70
2019-03-15T09:47:43.432Z,7.70
2019-03-15T09:50:22.914Z,7.80
2019-03-15T09:52:43.783Z,7.80
2019-03-15T09:55:13.374Z,7.90
2019-03-15T09:57:41.935Z,7.90
2019-03-15T10:00:13.558Z,8.00
2019-03-15T10:02:42.115Z,8.00
2019-03-15T10:05:11.737Z,8.00
2019-03-15T10:07:43.060Z,8.10
2019-03-15T10:10:18.239Z,8.10
2019-03-15T10:12:46.034Z,8.10
2019-03-15T10:15:15.415Z,8.10
2019-03-15T10:17:44.027Z,8.10
2019-03-15T10:20:13.237Z,8.20
2019-03-15T10:22:41.770Z,8.20
2019-03-15T10:25:16.902Z,8.30
2019-03-15T10:27:45.767Z,8.30
2019-03-15T10:30:21.034Z,8.40
2019-03-15T10:32:49.914Z,8.40
2019-03-15T10:35:18.507Z,8.50
2019-03-15T10:37:47.034Z,8.40
2019-03-15T10:40:18.086Z,8.50
2019-03-15T10:42:46.701Z,8.60
2019-03-15T10:45:15.236Z,8.60
2019-03-15T10:47:43.943Z,8.60
2019-03-15T10:50:16.790Z,8.70
2019-03-15T10:52:45.495Z,8.70
2019-03-15T10:55:14.272Z,8.70
2019-03-15T10:57:42.826Z,8.80
2019-03-15T11:00:19.670Z,8.80
2019-03-15T11:02:48.302Z,8.90
2019-03-15T11:05:16.849Z,9.00
2019-03-15T11:07:45.483Z,9.00
2019-03-15T11:10:14.272Z,9.00
2019-03-15T11:12:42.910Z,9.10
2019-03-15T11:15:12.719Z,9.10
2019-03-15T11:17:41.267Z,9.10
2019-03-15T11:20:11.048Z,9.10
2019-03-15T11:22:39.599Z,9.10
2019-03-15T11:25:09.624Z,9.20
2019-03-15T11:27:38.175Z,9.20
2019-03-15T11:30:09.367Z,9.20
2019-03-15T11:32:37.975Z,9.30
2019-03-15T11:35:08.491Z,9.20
2019-03-15T11:37:37.055Z,9.30
2019-03-15T11:40:08.735Z,9.30
2019-03-15T11:42:37.287Z,9.30
2019-03-15T11:45:08.138Z,9.40
2019-03-15T11:47:56.446Z,9.40
2019-03-15T11:50:10.769Z,9.40
2019-03-15T11:52:39.340Z,9.40
2019-03-15T11:55:09.115Z,9.30
2019-03-15T11:57:37.695Z,9.30
2019-03-15T12:00:09.467Z,9.40
2019-03-15T12:02:38.543Z,9.30
2019-03-15T12:05:08.039Z,9.40
2019-03-15T12:07:36.707Z,9.40
2019-03-15T12:10:08.563Z,9.50
2019-03-15T12:12:37.240Z,9.50
2019-03-15T12:15:11.635Z,9.50
2019-03-15T12:17:40.218Z,9.50
2019-03-15T12:20:12.642Z,9.50
2019-03-15T12:22:41.353Z,9.50
2019-03-15T12:25:12.035Z,9.50
2019-03-15T12:27:40.659Z,9.50
2019-03-15T12:30:12.300Z,9.50
2019-03-15T12:32:41.048Z,9.50
2019-03-15T12:35:11.354Z,9.50
2019-03-15T12:37:39.990Z,9.50
2019-03-15T12:40:15.742Z,9.40
2019-03-15T12:42:44.378Z,9.50
2019-03-15T12:45:14.093Z,9.50
2019-03-15T12:47:42.604Z,9.50
2019-03-15T12:50:12.839Z,9.50
2019-03-15T12:52:47.677Z,9.50
2019-03-15T12:55:13.608Z,9.60
2019-03-15T12:57:42.212Z,9.60
2019-03-15T13:00:15.639Z,9.50
2019-03-15T13:02:44.323Z,9.60
2019-03-15T13:05:13.134Z,9.60
2019-03-15T13:07:41.701Z,9.70
2019-03-15T13:10:20.767Z,9.70
2019-03-15T13:12:49.558Z,9.70
2019-03-15T13:15:18.402Z,9.70
2019-03-15T13:17:47.136Z,9.70
2019-03-15T13:20:16.895Z,9.80
2019-03-15T13:22:46.108Z,9.80
2019-03-15T13:25:14.902Z,9.80
2019-03-15T13:27:43.689Z,9.80
2019-03-15T13:30:15.950Z,9.80
2019-03-15T13:32:44.648Z,9.90
2019-03-15T13:35:13.596Z,9.90
2019-03-15T13:37:43.300Z,10.00
2019-03-15T13:40:16.345Z,10.00
2019-03-15T13:42:44.896Z,10.00
2019-03-15T13:45:14.440Z,10.00
2019-03-15T13:47:43.080Z,10.10
2019-03-15T13:50:22.207Z,10.20
2019-03-15T13:52:50.826Z,10.20
2019-03-15T13:55:19.593Z,10.20
2019-03-15T13:57:48.124Z,10.10
2019-03-15T14:00:17.853Z,10.10
2019-03-15T14:02:46.414Z,10.10
2019-03-15T14:05:15.021Z,10.10
2019-03-15T14:07:43.591Z,10.10
2019-03-15T14:10:16.897Z,10.10
2019-03-15T14:12:45.466Z,10.10
2019-03-15T14:15:18.274Z,10.10
2019-03-15T14:17:46.987Z,10.10
2019-03-15T14:20:15.642Z,10.10
2019-03-15T14:22:44.208Z,10.10
2019-03-15T14:25:15.471Z,10.10
2019-03-15T14:27:44.059Z,10.10
2019-03-15T14:30:13.659Z,10.20
2019-03-15T14:32:42.207Z,10.30
2019-03-15T14:35:11.020Z,10.30
2019-03-15T14:37:39.857Z,10.20
2019-03-15T14:40:09.977Z,10.10
2019-03-15T14:42:38.867Z,10.10
2019-03-15T14:45:12.653Z,10.10
2019-03-15T14:47:41.206Z,10.10
2019-03-15T14:50:11.019Z,10.10
2019-03-15T14:52:39.576Z,10.20
2019-03-15T14:55:15.186Z,10.30
2019-03-15T14:57:52.023Z,10.20
2019-03-15T15:00:20.834Z,10.30
2019-03-15T15:02:49.371Z,10.30
2019-03-15T15:05:18.031Z,10.30
2019-03-15T15:07:46.606Z,10.40
2019-03-15T15:10:16.333Z,10.40
2019-03-15T15:12:45.050Z,10.40
2019-03-15T15:15:18.176Z,10.40
2019-03-15T15:17:46.738Z,10.40
2019-03-15T15:20:15.285Z,10.40
2019-03-15T15:22:44.047Z,10.40
2019-03-15T15:25:14.618Z,10.40
2019-03-15T15:27:43.192Z,10.40
2019-03-15T15:30:15.912Z,10.40
2019-03-15T15:32:44.562Z,10.40
2019-03-15T15:35:13.848Z,10.40
2019-03-15T15:37:42.422Z,10.40
2019-03-15T15:40:15.786Z,10.40
2019-03-15T15:42:44.457Z,10.40
2019-03-15T15:45:13.246Z,10.40
2019-03-15T15:47:41.933Z,10.40
2019-03-15T15:50:11.744Z,10.40
2019-03-15T15:52:40.291Z,10.40
2019-03-15T15:55:10.311Z,10.40
2019-03-15T15:57:38.937Z,10.40
2019-03-15T16:00:15.459Z,10.40
2019-03-15T16:02:44.010Z,10.40
2019-03-15T16:05:12.720Z,10.40
2019-03-15T16:07:41.561Z,10.30
2019-03-15T16:10:17.175Z,10.30
2019-03-15T16:12:44.203Z,10.30
2019-03-15T16:15:14.893Z,10.30
2019-03-15T16:17:45.391Z,10.30
2019-03-15T16:20:13.646Z,10.30
2019-03-15T16:22:42.284Z,10.30
2019-03-15T16:25:14.085Z,10.30
2019-03-15T16:27:42.644Z,10.20
2019-03-15T16:30:18.446Z,10.20
2019-03-15T16:32:47.006Z,10.20
2019-03-15T16:35:15.619Z,10.20
2019-03-15T16:37:44.199Z,10.10
2019-03-15T16:40:14.175Z,10.10
2019-03-15T16:42:43.058Z,10.20
2019-03-15T16:45:15.308Z,10.20
2019-03-15T16:47:43.980Z,10.20
2019-03-15T16:50:13.286Z,10.10
2019-03-15T16:52:41.923Z,10.10
2019-03-15T16:55:11.815Z,10.10
2019-03-15T16:57:40.385Z,10.10
2019-03-15T17:00:11.771Z,10.10
2019-03-15T17:02:40.350Z,10.00
2019-03-15T17:05:12.608Z,10.00
2019-03-15T17:07:41.619Z,10.00
2019-03-15T17:10:17.512Z,10.00
2019-03-15T17:12:46.046Z,10.00
2019-03-15T17:15:16.918Z,10.00
2019-03-15T17:17:45.541Z,10.00
2019-03-15T17:20:14.378Z,10.00
2019-03-15T17:22:43.180Z,10.00
2019-03-15T17:25:12.266Z,10.00
2019-03-15T17:27:40.830Z,10.00
2019-03-15T17:30:14.163Z,10.00
2019-03-15T17:32:42.804Z,10.00
2019-03-15T17:35:13.123Z,10.00
2019-03-15T17:37:41.759Z,9.90
2019-03-15T17:40:15.395Z,10.00
2019-03-15T17:42:43.974Z,9.90
2019-03-15T17:45:12.671Z,10.00
2019-03-15T17:47:41.269Z,9.90
2019-03-15T17:50:15.166Z,10.00
2019-03-15T17:52:43.835Z,10.00
2019-03-15T17:55:12.600Z,10.00
2019-03-15T17:57:41.168Z,10.00
2019-03-15T18:00:43.495Z,10.00
2019-03-15T18:03:20.511Z,10.00
2019-03-15T18:05:42.399Z,10.00
2019-03-15T18:08:11.031Z,9.90
2019-03-15T18:10:39.574Z,9.90
2019-03-15T18:13:08.219Z,9.90
2019-03-15T18:15:36.876Z,9.90
2019-03-15T18:18:05.487Z,10.00
2019-03-15T18:20:34.144Z,10.00
2019-03-15T18:23:02.822Z,10.00
2019-03-15T18:25:31.390Z,10.00
2019-03-15T18:27:59.938Z,10.00
2019-03-15T18:30:28.523Z,10.00
2019-03-15T18:32:57.084Z,10.00
2019-03-15T18:35:33.461Z,10.00
2019-03-15T18:37:55.866Z,10.00
2019-03-15T18:40:24.442Z,10.00
2019-03-15T18:42:52.975Z,9.90
2019-03-15T18:45:21.612Z,9.90
2019-03-15T18:47:50.246Z,10.00
2019-03-15T18:50:27.346Z,9.90
2019-03-15T18:52:55.890Z,9.90
2019-03-15T18:55:24.506Z,10.00
2019-03-15T18:57:53.139Z,9.90
2019-03-15T19:00:23.914Z,9.90
2019-03-15T19:02:52.623Z,10.00
2019-03-15T19:05:21.319Z,10.00
2019-03-15T19:07:50.021Z,10.10
2019-03-15T19:10:18.574Z,10.10
2019-03-15T19:12:47.183Z,10.00
2019-03-15T19:15:18.803Z,10.00
2019-03-15T19:17:47.379Z,10.00
2019-03-15T19:20:16.663Z,10.00
2019-03-15T19:22:45.436Z,10.00
2019-03-15T19:25:15.053Z,10.00
2019-03-15T19:27:43.644Z,10.00
2019-03-15T19:30:19.431Z,10.00
2019-03-15T19:32:48.234Z,10.00
2019-03-15T19:35:16.826Z,9.90
2019-03-15T19:37:45.441Z,10.00
2019-03-15T19:40:19.012Z,10.00
2019-03-15T19:42:47.629Z,10.00
2019-03-15T19:45:16.934Z,10.00
2019-03-15T19:47:45.642Z,10.00
2019-03-15T19:50:23.308Z,10.00
2019-03-15T19:52:52.148Z,10.00
2019-03-15T19:55:20.696Z,10.00
2019-03-15T19:57:49.337Z,10.00
2019-03-15T20:00:21.747Z,10.00
2019-03-15T20:02:50.467Z,10.00
2019-03-15T20:05:19.309Z,10.00
2019-03-15T20:07:47.976Z,10.10
2019-03-15T20:10:17.471Z,10.10
2019-03-15T20:12:46.224Z,10.00
2019-03-15T20:15:16.100Z,10.00
2019-03-15T20:17:44.808Z,10.00
2019-03-15T20:20:18.567Z,10.00
2019-03-15T20:22:47.113Z,9.90
2019-03-15T20:25:17.686Z,9.90
2019-03-15T20:27:46.406Z,9.90
2019-03-15T20:30:23.153Z,9.90
2019-03-15T20:32:50.541Z,9.90
2019-03-15T20:35:19.112Z,9.90
2019-03-15T20:37:47.724Z,9.90
2019-03-15T20:40:16.374Z,9.90
2019-03-15T20:42:45.057Z,9.80
2019-03-15T20:45:30.161Z,9.80
2019-03-15T20:47:58.740Z,9.80
2019-03-15T20:50:27.385Z,9.70
2019-03-15T20:53:07.725Z,9.70
2019-03-15T20:55:28.841Z,9.60
2019-03-15T20:57:56.419Z,9.60
2019-03-15T21:00:35.587Z,9.60
2019-03-15T21:02:55.626Z,9.60
2019-03-15T21:05:24.255Z,9.60
2019-03-15T21:07:52.814Z,9.60
2019-03-15T21:10:21.607Z,9.50
2019-03-15T21:12:50.195Z,9.50
2019-03-15T21:15:18.747Z,9.50
2019-03-15T21:17:47.331Z,9.50
2019-03-15T21:20:22.592Z,9.50
2019-03-15T21:22:50.272Z,9.50
2019-03-15T21:25:18.828Z,9.60
2019-03-15T21:27:54.112Z,9.60
2019-03-15T21:30:25.832Z,9.60
2019-03-15T21:32:54.394Z,9.60
2019-03-15T21:35:22.925Z,9.60
2019-03-15T21:37:52.056Z,9.60
2019-03-15T21:40:21.643Z,9.60
2019-03-15T21:42:50.257Z,9.50
2019-03-15T21:45:18.822Z,9.50
2019-03-15T21:47:47.381Z,9.50
2019-03-15T21:50:18.150Z,9.50
2019-03-15T21:52:46.813Z,9.50
2019-03-15T21:55:15.480Z,9.50
2019-03-15T21:57:44.079Z,9.50
2019-03-15T22:00:14.837Z,9.50
2019-03-15T22:02:43.559Z,9.50
2019-03-15T22:05:12.167Z,9.50
2019-03-15T22:07:40.735Z,9.50
2019-03-15T22:10:11.716Z,9.50
2019-03-15T22:12:40.275Z,9.50
2019-03-15T22:15:13.594Z,9.60
2019-03-15T22:17:42.428Z,9.50
2019-03-15T22:20:14.768Z,9.50
2019-03-15T22:22:43.442Z,9.50
2019-03-15T22:25:12.224Z,9.60
2019-03-15T22:27:40.793Z,9.50
2019-03-15T22:30:15.643Z,9.50
2019-03-15T22:32:44.218Z,9.50
2019-03-15T22:35:12.936Z,9.50
2019-03-15T22:37:41.588Z,9.50
2019-03-15T22:40:12.359Z,9.50
2019-03-15T22:42:41.043Z,9.50
2019-03-15T22:45:11.721Z,9.60
2019-03-15T22:47:40.268Z,9.60
2019-03-15T22:50:11.731Z,9.60
2019-03-15T22:52:40.262Z,9.60
2019-03-15T22:55:11.046Z,9.60
2019-03-15T22:57:39.764Z,9.60
2019-03-15T23:00:17.361Z,9.60
2019-03-15T23:02:46.123Z,9.60
2019-03-15T23:05:14.963Z,9.60
2019-03-15T23:07:43.691Z,9.60
2019-03-15T23:10:12.374Z,9.60
2019-03-15T23:12:41.084Z,9.50
2019-03-15T23:15:11.075Z,9.60
2019-03-15T23:17:39.640Z,9.50
2019-03-15T23:20:10.234Z,9.60
2019-03-15T23:22:38.795Z,9.60
2019-03-15T23:25:07.885Z,9.60
2019-03-15T23:27:36.538Z,9.60
2019-03-15T23:30:16.435Z,9.50
2019-03-15T23:32:45.252Z,9.60
2019-03-15T23:35:13.800Z,9.60
2019-03-15T23:37:42.470Z,9.60
2019-03-15T23:40:12.551Z,9.50
2019-03-15T23:42:41.130Z,9.50
2019-03-15T23:45:10.616Z,9.50
2019-03-15T23:47:39.708Z,9.50
2019-03-15T23:50:11.303Z,9.50
2019-03-15T23:52:39.846Z,9.50
2019-03-15T23:55:08.851Z,9.50
2019-03-15T23:57:37.562Z,9.50
